sensor_id;sensor_type;location;lat;lon;timestamp;temperature;humidity
5980;DHT22;3016;50.308;8.258;2023-04-24T00:02:18;9.80;7.00
5980;DHT22;3016;50.308;8.258;2023-04-24T00:05:19;9.90;7.70
5980;DHT22;3016;50.308;8.258;2023-04-24T00:08:20;9.90;6.30
5980;DHT22;3016;50.308;8.258;2023-04-24T00:11:20;9.90;4.70
5980;DHT22;3016;50.308;8.258;2023-04-24T00:14:21;9.90;3.20
5980;DHT22;3016;50.308;8.258;2023-04-24T00:17:22;9.90;5.30
5980;DHT22;3016;50.308;8.258;2023-04-24T00:20:23;9.80;5.30
5980;DHT22;3016;50.308;8.258;2023-04-24T00:23:23;9.80;7.00
5980;DHT22;3016;50.308;8.258;2023-04-24T00:26:24;9.90;7.60
5980;DHT22;3016;50.308;8.258;2023-04-24T00:29:25;9.90;6.50
5980;DHT22;3016;50.308;8.258;2023-04-24T00:32:25;10.00;5.40
5980;DHT22;3016;50.308;8.258;2023-04-24T00:35:26;10.00;2.50
5980;DHT22;3016;50.308;8.258;2023-04-24T00:38:27;10.10;4.20
5980;DHT22;3016;50.308;8.258;2023-04-24T00:41:27;10.10;4.70
5980;DHT22;3016;50.308;8.258;2023-04-24T00:44:28;10.10;3.70
5980;DHT22;3016;50.308;8.258;2023-04-24T00:47:29;10.20;2.50
5980;DHT22;3016;50.308;8.258;2023-04-24T00:50:30;10.20;1.00
5980;DHT22;3016;50.308;8.258;2023-04-24T00:53:31;10.10;1.00
5980;DHT22;3016;50.308;8.258;2023-04-24T00:56:33;10.10;1.00
5980;DHT22;3016;50.308;8.258;2023-04-24T00:59:34;10.10;2.30
5980;DHT22;3016;50.308;8.258;2023-04-24T01:02:41;10.10;3.00
5980;DHT22;3016;50.308;8.258;2023-04-24T01:05:47;10.10;3.50
5980;DHT22;3016;50.308;8.258;2023-04-24T01:08:48;10.10;4.30
5980;DHT22;3016;50.308;8.258;2023-04-24T01:11:50;10.10;4.00
5980;DHT22;3016;50.308;8.258;2023-04-24T01:14:51;10.10;3.40
5980;DHT22;3016;50.308;8.258;2023-04-24T01:17:51;10.10;1.00
5980;DHT22;3016;50.308;8.258;2023-04-24T01:20:56;10.20;1.00
5980;DHT22;3016;50.308;8.258;2023-04-24T01:23:57;10.20;1.00
5980;DHT22;3016;50.308;8.258;2023-04-24T01:26:58;10.20;1.00
5980;DHT22;3016;50.308;8.258;2023-04-24T01:29:59;10.20;1.00
5980;DHT22;3016;50.308;8.258;2023-04-24T01:33:00;10.20;1.00
5980;DHT22;3016;50.308;8.258;2023-04-24T01:36:01;10.20;1.00
5980;DHT22;3016;50.308;8.258;2023-04-24T01:39:02;10.20;1.00
5980;DHT22;3016;50.308;8.258;2023-04-24T01:42:04;10.20;1.00
5980;DHT22;3016;50.308;8.258;2023-04-24T01:45:06;10.20;2.10
5980;DHT22;3016;50.308;8.258;2023-04-24T01:48:07;10.10;6.70
5980;DHT22;3016;50.308;8.258;2023-04-24T01:51:07;10.10;16.20
5980;DHT22;3016;50.308;8.258;2023-04-24T01:54:08;10.00;22.60
5980;DHT22;3016;50.308;8.258;2023-04-24T01:57:09;10.00;26.70
5980;DHT22;3016;50.308;8.258;2023-04-24T02:00:10;9.90;32.50
5980;DHT22;3016;50.308;8.258;2023-04-24T02:03:12;9.90;36.70
5980;DHT22;3016;50.308;8.258;2023-04-24T02:06:13;9.90;38.70
5980;DHT22;3016;50.308;8.258;2023-04-24T02:09:13;9.90;41.80
5980;DHT22;3016;50.308;8.258;2023-04-24T02:12:15;9.90;44.90
5980;DHT22;3016;50.308;8.258;2023-04-24T02:15:17;9.80;45.70
5980;DHT22;3016;50.308;8.258;2023-04-24T02:18:18;9.80;46.90
5980;DHT22;3016;50.308;8.258;2023-04-24T02:21:18;9.60;44.80
5980;DHT22;3016;50.308;8.258;2023-04-24T02:24:19;9.60;46.30
5980;DHT22;3016;50.308;8.258;2023-04-24T02:27:20;9.60;47.40
5980;DHT22;3016;50.308;8.258;2023-04-24T02:30:21;9.60;46.00
5980;DHT22;3016;50.308;8.258;2023-04-24T02:33:21;9.60;45.40
5980;DHT22;3016;50.308;8.258;2023-04-24T02:36:22;9.60;44.80
5980;DHT22;3016;50.308;8.258;2023-04-24T02:39:23;9.50;43.10
5980;DHT22;3016;50.308;8.258;2023-04-24T02:42:23;9.50;42.30
5980;DHT22;3016;50.308;8.258;2023-04-24T02:45:24;9.50;43.20
5980;DHT22;3016;50.308;8.258;2023-04-24T02:48:25;9.40;45.30
5980;DHT22;3016;50.308;8.258;2023-04-24T02:51:26;9.40;45.90
5980;DHT22;3016;50.308;8.258;2023-04-24T02:54:27;9.40;46.30
5980;DHT22;3016;50.308;8.258;2023-04-24T02:57:27;9.40;47.20
5980;DHT22;3016;50.308;8.258;2023-04-24T03:00:28;9.40;46.50
5980;DHT22;3016;50.308;8.258;2023-04-24T03:03:29;9.30;40.90
5980;DHT22;3016;50.308;8.258;2023-04-24T03:06:29;9.20;29.40
5980;DHT22;3016;50.308;8.258;2023-04-24T03:09:31;9.20;23.20
5980;DHT22;3016;50.308;8.258;2023-04-24T03:12:32;9.10;16.90
5980;DHT22;3016;50.308;8.258;2023-04-24T03:15:32;9.10;19.90
5980;DHT22;3016;50.308;8.258;2023-04-24T03:18:33;9.10;20.60
5980;DHT22;3016;50.308;8.258;2023-04-24T03:21:34;9.10;19.30
5980;DHT22;3016;50.308;8.258;2023-04-24T03:24:36;9.10;20.20
5980;DHT22;3016;50.308;8.258;2023-04-24T03:27:36;9.10;22.10
5980;DHT22;3016;50.308;8.258;2023-04-24T03:30:37;9.10;25.00
5980;DHT22;3016;50.308;8.258;2023-04-24T03:33:38;9.00;25.80
5980;DHT22;3016;50.308;8.258;2023-04-24T03:36:39;9.00;24.90
5980;DHT22;3016;50.308;8.258;2023-04-24T03:39:39;8.90;24.00
5980;DHT22;3016;50.308;8.258;2023-04-24T03:42:40;8.90;21.90
5980;DHT22;3016;50.308;8.258;2023-04-24T03:45:41;8.80;17.10
5980;DHT22;3016;50.308;8.258;2023-04-24T03:48:41;8.70;10.10
5980;DHT22;3016;50.308;8.258;2023-04-24T03:51:42;8.60;1.00
5980;DHT22;3016;50.308;8.258;2023-04-24T03:54:43;8.60;1.00
5980;DHT22;3016;50.308;8.258;2023-04-24T03:57:43;8.50;1.00
5980;DHT22;3016;50.308;8.258;2023-04-24T04:00:44;8.50;1.00
5980;DHT22;3016;50.308;8.258;2023-04-24T04:03:46;8.40;1.00
5980;DHT22;3016;50.308;8.258;2023-04-24T04:06:47;8.30;1.00
5980;DHT22;3016;50.308;8.258;2023-04-24T04:09:49;8.20;1.00
5980;DHT22;3016;50.308;8.258;2023-04-24T04:12:49;8.20;1.00
5980;DHT22;3016;50.308;8.258;2023-04-24T04:15:50;8.10;1.00
5980;DHT22;3016;50.308;8.258;2023-04-24T04:18:51;8.00;1.00
5980;DHT22;3016;50.308;8.258;2023-04-24T04:21:51;8.00;1.00
5980;DHT22;3016;50.308;8.258;2023-04-24T04:24:53;7.90;1.00
5980;DHT22;3016;50.308;8.258;2023-04-24T04:27:54;7.90;1.00
5980;DHT22;3016;50.308;8.258;2023-04-24T04:30:55;7.90;1.00
5980;DHT22;3016;50.308;8.258;2023-04-24T04:33:55;7.80;1.90
5980;DHT22;3016;50.308;8.258;2023-04-24T04:36:57;7.70;1.80
5980;DHT22;3016;50.308;8.258;2023-04-24T04:40:00;7.60;3.10
5980;DHT22;3016;50.308;8.258;2023-04-24T04:43:01;7.50;6.40
5980;DHT22;3016;50.308;8.258;2023-04-24T04:46:02;7.40;6.40
5980;DHT22;3016;50.308;8.258;2023-04-24T04:49:04;7.40;9.70
5980;DHT22;3016;50.308;8.258;2023-04-24T04:52:05;7.30;10.50
5980;DHT22;3016;50.308;8.258;2023-04-24T04:55:06;7.30;12.80
5980;DHT22;3016;50.308;8.258;2023-04-24T04:58:07;7.20;14.40
5980;DHT22;3016;50.308;8.258;2023-04-24T05:01:08;7.20;17.90
5980;DHT22;3016;50.308;8.258;2023-04-24T05:04:09;7.20;20.70
5980;DHT22;3016;50.308;8.258;2023-04-24T05:07:10;7.20;22.80
5980;DHT22;3016;50.308;8.258;2023-04-24T05:10:11;7.10;22.60
5980;DHT22;3016;50.308;8.258;2023-04-24T05:13:12;7.10;23.70
5980;DHT22;3016;50.308;8.258;2023-04-24T05:16:12;7.00;24.40
5980;DHT22;3016;50.308;8.258;2023-04-24T05:19:13;7.10;26.80
5980;DHT22;3016;50.308;8.258;2023-04-24T05:22:14;7.30;28.30
5980;DHT22;3016;50.308;8.258;2023-04-24T05:25:15;7.40;26.00
5980;DHT22;3016;50.308;8.258;2023-04-24T05:28:16;7.50;15.20
5980;DHT22;3016;50.308;8.258;2023-04-24T05:31:17;7.60;1.00
5980;DHT22;3016;50.308;8.258;2023-04-24T05:34:18;7.60;1.00
5980;DHT22;3016;50.308;8.258;2023-04-24T05:37:18;7.60;1.00
5980;DHT22;3016;50.308;8.258;2023-04-24T05:40:19;7.70;1.00
5980;DHT22;3016;50.308;8.258;2023-04-24T05:43:20;7.80;1.00
5980;DHT22;3016;50.308;8.258;2023-04-24T05:46:21;8.00;1.00
5980;DHT22;3016;50.308;8.258;2023-04-24T05:49:22;8.20;1.00
5980;DHT22;3016;50.308;8.258;2023-04-24T05:52:23;8.40;1.00
5980;DHT22;3016;50.308;8.258;2023-04-24T05:55:24;8.50;1.00
5980;DHT22;3016;50.308;8.258;2023-04-24T05:58:26;8.50;1.00
5980;DHT22;3016;50.308;8.258;2023-04-24T06:01:26;8.50;1.00
5980;DHT22;3016;50.308;8.258;2023-04-24T06:04:27;8.60;1.00
5980;DHT22;3016;50.308;8.258;2023-04-24T06:07:28;8.70;1.00
5980;DHT22;3016;50.308;8.258;2023-04-24T06:10:28;8.90;1.00
5980;DHT22;3016;50.308;8.258;2023-04-24T06:13:29;9.10;1.00
5980;DHT22;3016;50.308;8.258;2023-04-24T06:16:30;9.20;1.00
5980;DHT22;3016;50.308;8.258;2023-04-24T06:19:31;9.20;1.00
5980;DHT22;3016;50.308;8.258;2023-04-24T06:22:32;9.30;1.00
5980;DHT22;3016;50.308;8.258;2023-04-24T06:25:33;9.50;1.00
5980;DHT22;3016;50.308;8.258;2023-04-24T06:28:33;9.60;1.00
5980;DHT22;3016;50.308;8.258;2023-04-24T06:31:35;9.80;1.00
5980;DHT22;3016;50.308;8.258;2023-04-24T06:34:37;9.90;1.00
5980;DHT22;3016;50.308;8.258;2023-04-24T06:37:41;9.90;1.00
5980;DHT22;3016;50.308;8.258;2023-04-24T06:40:42;9.80;1.00
5980;DHT22;3016;50.308;8.258;2023-04-24T06:43:43;9.80;1.00
5980;DHT22;3016;50.308;8.258;2023-04-24T06:46:45;9.90;1.00
5980;DHT22;3016;50.308;8.258;2023-04-24T06:49:45;10.00;1.00
5980;DHT22;3016;50.308;8.258;2023-04-24T06:52:46;9.90;1.00
5980;DHT22;3016;50.308;8.258;2023-04-24T06:55:47;9.80;1.00
5980;DHT22;3016;50.308;8.258;2023-04-24T06:58:48;9.70;1.00
5980;DHT22;3016;50.308;8.258;2023-04-24T07:01:48;9.60;1.00
5980;DHT22;3016;50.308;8.258;2023-04-24T07:04:49;9.80;1.00
5980;DHT22;3016;50.308;8.258;2023-04-24T07:07:50;9.90;1.00
5980;DHT22;3016;50.308;8.258;2023-04-24T07:10:51;10.00;1.00
5980;DHT22;3016;50.308;8.258;2023-04-24T07:13:52;10.30;1.00
5980;DHT22;3016;50.308;8.258;2023-04-24T07:16:52;10.30;1.00
5980;DHT22;3016;50.308;8.258;2023-04-24T07:19:53;10.10;1.00
5980;DHT22;3016;50.308;8.258;2023-04-24T07:22:54;10.30;1.00
5980;DHT22;3016;50.308;8.258;2023-04-24T07:25:55;10.40;1.00
5980;DHT22;3016;50.308;8.258;2023-04-24T07:28:55;10.30;1.00
5980;DHT22;3016;50.308;8.258;2023-04-24T07:31:56;10.60;1.00
5980;DHT22;3016;50.308;8.258;2023-04-24T07:34:57;10.80;1.00
5980;DHT22;3016;50.308;8.258;2023-04-24T07:37:57;11.20;1.00
5980;DHT22;3016;50.308;8.258;2023-04-24T07:40:58;11.40;1.00
5980;DHT22;3016;50.308;8.258;2023-04-24T07:43:59;11.40;1.00
5980;DHT22;3016;50.308;8.258;2023-04-24T07:47:00;11.40;1.00
5980;DHT22;3016;50.308;8.258;2023-04-24T07:50:00;11.40;1.00
5980;DHT22;3016;50.308;8.258;2023-04-24T07:53:01;11.40;1.00
5980;DHT22;3016;50.308;8.258;2023-04-24T07:56:02;11.10;1.00
5980;DHT22;3016;50.308;8.258;2023-04-24T07:59:03;10.90;1.00
5980;DHT22;3016;50.308;8.258;2023-04-24T08:02:04;10.70;1.00
5980;DHT22;3016;50.308;8.258;2023-04-24T08:05:06;10.80;1.00
5980;DHT22;3016;50.308;8.258;2023-04-24T08:08:08;10.80;1.00
5980;DHT22;3016;50.308;8.258;2023-04-24T08:11:09;10.70;1.00
5980;DHT22;3016;50.308;8.258;2023-04-24T08:14:10;10.60;1.00
5980;DHT22;3016;50.308;8.258;2023-04-24T08:17:12;10.60;1.00
5980;DHT22;3016;50.308;8.258;2023-04-24T08:20:13;10.50;1.00
5980;DHT22;3016;50.308;8.258;2023-04-24T08:23:14;10.40;1.00
5980;DHT22;3016;50.308;8.258;2023-04-24T08:26:14;10.30;1.00
5980;DHT22;3016;50.308;8.258;2023-04-24T08:29:15;10.20;1.00
5980;DHT22;3016;50.308;8.258;2023-04-24T08:32:17;10.20;1.00
5980;DHT22;3016;50.308;8.258;2023-04-24T08:35:17;10.20;1.00
5980;DHT22;3016;50.308;8.258;2023-04-24T08:38:19;10.10;1.00
5980;DHT22;3016;50.308;8.258;2023-04-24T08:41:19;10.20;1.00
5980;DHT22;3016;50.308;8.258;2023-04-24T08:44:21;10.20;1.00
5980;DHT22;3016;50.308;8.258;2023-04-24T08:47:22;10.20;1.00
5980;DHT22;3016;50.308;8.258;2023-04-24T08:50:25;10.30;1.00
5980;DHT22;3016;50.308;8.258;2023-04-24T08:53:26;10.40;1.00
5980;DHT22;3016;50.308;8.258;2023-04-24T08:56:28;10.60;1.00
5980;DHT22;3016;50.308;8.258;2023-04-24T08:59:30;10.80;1.00
5980;DHT22;3016;50.308;8.258;2023-04-24T09:02:31;10.80;1.00
5980;DHT22;3016;50.308;8.258;2023-04-24T09:05:34;10.80;1.00
5980;DHT22;3016;50.308;8.258;2023-04-24T09:08:35;10.90;1.00
5980;DHT22;3016;50.308;8.258;2023-04-24T09:11:36;11.00;1.00
5980;DHT22;3016;50.308;8.258;2023-04-24T09:14:37;11.00;1.00
5980;DHT22;3016;50.308;8.258;2023-04-24T09:17:43;10.90;1.00
5980;DHT22;3016;50.308;8.258;2023-04-24T09:21:04;10.80;1.00
5980;DHT22;3016;50.308;8.258;2023-04-24T09:24:18;10.60;1.00
5980;DHT22;3016;50.308;8.258;2023-04-24T09:27:23;10.40;1.00
5980;DHT22;3016;50.308;8.258;2023-04-24T09:30:24;10.40;1.00
5980;DHT22;3016;50.308;8.258;2023-04-24T09:33:24;10.40;1.00
5980;DHT22;3016;50.308;8.258;2023-04-24T09:36:33;10.60;1.00
5980;DHT22;3016;50.308;8.258;2023-04-24T09:39:34;10.70;1.00
5980;DHT22;3016;50.308;8.258;2023-04-24T09:42:35;10.80;1.00
5980;DHT22;3016;50.308;8.258;2023-04-24T09:45:37;10.80;1.00
5980;DHT22;3016;50.308;8.258;2023-04-24T09:48:39;11.00;1.00
5980;DHT22;3016;50.308;8.258;2023-04-24T09:51:40;11.10;1.00
5980;DHT22;3016;50.308;8.258;2023-04-24T09:54:40;11.20;1.00
5980;DHT22;3016;50.308;8.258;2023-04-24T09:57:52;11.10;1.00
5980;DHT22;3016;50.308;8.258;2023-04-24T10:00:56;11.00;1.00
5980;DHT22;3016;50.308;8.258;2023-04-24T10:03:57;11.00;1.00
5980;DHT22;3016;50.308;8.258;2023-04-24T10:06:57;11.10;1.00
5980;DHT22;3016;50.308;8.258;2023-04-24T10:09:59;11.30;1.00
5980;DHT22;3016;50.308;8.258;2023-04-24T10:13:00;11.40;1.00
5980;DHT22;3016;50.308;8.258;2023-04-24T10:16:03;11.40;1.00
5980;DHT22;3016;50.308;8.258;2023-04-24T10:19:04;11.20;1.00
5980;DHT22;3016;50.308;8.258;2023-04-24T10:22:05;11.20;1.00
5980;DHT22;3016;50.308;8.258;2023-04-24T10:25:07;11.10;1.00
5980;DHT22;3016;50.308;8.258;2023-04-24T10:28:09;11.20;1.00
5980;DHT22;3016;50.308;8.258;2023-04-24T10:31:12;11.20;1.00
5980;DHT22;3016;50.308;8.258;2023-04-24T10:34:15;11.10;1.00
5980;DHT22;3016;50.308;8.258;2023-04-24T10:37:16;10.90;1.00
5980;DHT22;3016;50.308;8.258;2023-04-24T10:40:26;10.90;1.00
5980;DHT22;3016;50.308;8.258;2023-04-24T10:43:33;10.80;1.00
5980;DHT22;3016;50.308;8.258;2023-04-24T10:46:34;10.80;1.00
5980;DHT22;3016;50.308;8.258;2023-04-24T10:49:35;10.80;1.00
5980;DHT22;3016;50.308;8.258;2023-04-24T10:52:46;10.80;1.00
5980;DHT22;3016;50.308;8.258;2023-04-24T10:55:51;10.80;1.00
5980;DHT22;3016;50.308;8.258;2023-04-24T10:59:24;10.80;1.00
5980;DHT22;3016;50.308;8.258;2023-04-24T11:02:36;10.80;1.00
5980;DHT22;3016;50.308;8.258;2023-04-24T11:06:05;10.90;1.00
5980;DHT22;3016;50.308;8.258;2023-04-24T11:09:08;11.00;1.00
5980;DHT22;3016;50.308;8.258;2023-04-24T11:12:12;11.00;1.00
5980;DHT22;3016;50.308;8.258;2023-04-24T11:15:14;10.90;1.00
5980;DHT22;3016;50.308;8.258;2023-04-24T11:18:19;10.90;1.00
5980;DHT22;3016;50.308;8.258;2023-04-24T11:21:23;10.80;1.00
5980;DHT22;3016;50.308;8.258;2023-04-24T11:24:48;10.60;1.00
5980;DHT22;3016;50.308;8.258;2023-04-24T11:28:03;10.40;1.00
5980;DHT22;3016;50.308;8.258;2023-04-24T11:31:36;10.50;1.00
5980;DHT22;3016;50.308;8.258;2023-04-24T11:34:54;10.80;1.00
5980;DHT22;3016;50.308;8.258;2023-04-24T11:38:02;10.90;1.00
5980;DHT22;3016;50.308;8.258;2023-04-24T11:41:03;11.20;1.00
5980;DHT22;3016;50.308;8.258;2023-04-24T11:44:08;11.60;1.00
5980;DHT22;3016;50.308;8.258;2023-04-24T11:47:09;11.80;1.00
5980;DHT22;3016;50.308;8.258;2023-04-24T11:50:18;12.00;1.00
5980;DHT22;3016;50.308;8.258;2023-04-24T11:53:20;12.00;1.00
5980;DHT22;3016;50.308;8.258;2023-04-24T11:56:22;11.80;1.00
5980;DHT22;3016;50.308;8.258;2023-04-24T11:59:24;11.80;1.00
5980;DHT22;3016;50.308;8.258;2023-04-24T12:02:25;12.10;1.00
5980;DHT22;3016;50.308;8.258;2023-04-24T12:05:27;12.10;1.00
5980;DHT22;3016;50.308;8.258;2023-04-24T12:08:31;12.10;1.00
5980;DHT22;3016;50.308;8.258;2023-04-24T12:11:32;11.80;1.00
5980;DHT22;3016;50.308;8.258;2023-04-24T12:14:41;11.50;1.00
5980;DHT22;3016;50.308;8.258;2023-04-24T12:17:45;11.30;1.00
5980;DHT22;3016;50.308;8.258;2023-04-24T12:20:46;11.00;1.00
5980;DHT22;3016;50.308;8.258;2023-04-24T12:23:47;10.60;1.00
5980;DHT22;3016;50.308;8.258;2023-04-24T12:26:48;10.20;1.00
5980;DHT22;3016;50.308;8.258;2023-04-24T12:29:53;9.60;1.00
5980;DHT22;3016;50.308;8.258;2023-04-24T12:32:58;9.40;1.00
5980;DHT22;3016;50.308;8.258;2023-04-24T12:36:00;9.30;1.00
5980;DHT22;3016;50.308;8.258;2023-04-24T12:39:01;9.20;1.00
5980;DHT22;3016;50.308;8.258;2023-04-24T12:42:02;9.20;1.00
5980;DHT22;3016;50.308;8.258;2023-04-24T12:45:05;9.20;1.00
5980;DHT22;3016;50.308;8.258;2023-04-24T12:48:07;9.30;1.00
5980;DHT22;3016;50.308;8.258;2023-04-24T12:51:07;9.40;1.00
5980;DHT22;3016;50.308;8.258;2023-04-24T12:54:08;9.60;1.00
5980;DHT22;3016;50.308;8.258;2023-04-24T12:57:09;9.90;1.00
5980;DHT22;3016;50.308;8.258;2023-04-24T13:00:10;10.90;1.00
5980;DHT22;3016;50.308;8.258;2023-04-24T13:03:11;11.30;1.00
5980;DHT22;3016;50.308;8.258;2023-04-24T13:06:12;11.20;1.00
5980;DHT22;3016;50.308;8.258;2023-04-24T13:09:13;10.80;1.00
5980;DHT22;3016;50.308;8.258;2023-04-24T13:12:13;10.60;1.00
5980;DHT22;3016;50.308;8.258;2023-04-24T13:15:14;10.40;1.00
5980;DHT22;3016;50.308;8.258;2023-04-24T13:18:15;10.60;1.00
5980;DHT22;3016;50.308;8.258;2023-04-24T13:21:16;10.90;1.00
5980;DHT22;3016;50.308;8.258;2023-04-24T13:24:17;11.50;1.00
5980;DHT22;3016;50.308;8.258;2023-04-24T13:27:18;12.10;1.00
5980;DHT22;3016;50.308;8.258;2023-04-24T13:30:19;12.10;1.00
5980;DHT22;3016;50.308;8.258;2023-04-24T13:33:19;11.90;1.00
5980;DHT22;3016;50.308;8.258;2023-04-24T13:36:20;11.90;1.00
5980;DHT22;3016;50.308;8.258;2023-04-24T13:39:22;11.90;1.00
5980;DHT22;3016;50.308;8.258;2023-04-24T13:42:23;11.60;1.00
5980;DHT22;3016;50.308;8.258;2023-04-24T13:45:24;11.50;1.00
5980;DHT22;3016;50.308;8.258;2023-04-24T13:48:24;11.60;1.00
5980;DHT22;3016;50.308;8.258;2023-04-24T13:51:26;12.20;1.00
5980;DHT22;3016;50.308;8.258;2023-04-24T13:54:29;12.50;1.00
5980;DHT22;3016;50.308;8.258;2023-04-24T13:57:30;12.50;1.00
5980;DHT22;3016;50.308;8.258;2023-04-24T14:00:31;12.40;1.00
5980;DHT22;3016;50.308;8.258;2023-04-24T14:03:33;12.10;1.00
5980;DHT22;3016;50.308;8.258;2023-04-24T14:06:34;11.90;1.00
5980;DHT22;3016;50.308;8.258;2023-04-24T14:09:35;11.60;1.00
5980;DHT22;3016;50.308;8.258;2023-04-24T14:12:35;11.30;1.00
5980;DHT22;3016;50.308;8.258;2023-04-24T14:15:36;11.10;1.00
5980;DHT22;3016;50.308;8.258;2023-04-24T14:18:37;11.00;1.00
5980;DHT22;3016;50.308;8.258;2023-04-24T14:21:38;10.90;1.00
5980;DHT22;3016;50.308;8.258;2023-04-24T14:24:39;10.80;1.00
5980;DHT22;3016;50.308;8.258;2023-04-24T14:27:39;10.90;1.00
5980;DHT22;3016;50.308;8.258;2023-04-24T14:30:40;10.90;1.00
5980;DHT22;3016;50.308;8.258;2023-04-24T14:33:41;11.00;1.00
5980;DHT22;3016;50.308;8.258;2023-04-24T14:36:42;11.10;1.00
5980;DHT22;3016;50.308;8.258;2023-04-24T14:39:42;11.50;1.00
5980;DHT22;3016;50.308;8.258;2023-04-24T14:42:43;11.80;1.00
5980;DHT22;3016;50.308;8.258;2023-04-24T14:45:44;12.00;1.00
5980;DHT22;3016;50.308;8.258;2023-04-24T14:48:44;12.10;1.00
5980;DHT22;3016;50.308;8.258;2023-04-24T14:51:45;12.20;1.00
5980;DHT22;3016;50.308;8.258;2023-04-24T14:54:46;12.30;1.00
5980;DHT22;3016;50.308;8.258;2023-04-24T14:57:47;12.20;1.00
5980;DHT22;3016;50.308;8.258;2023-04-24T15:00:47;12.20;1.00
5980;DHT22;3016;50.308;8.258;2023-04-24T15:03:52;12.20;1.00
5980;DHT22;3016;50.308;8.258;2023-04-24T15:06:53;12.10;1.00
5980;DHT22;3016;50.308;8.258;2023-04-24T15:09:54;11.90;1.00
5980;DHT22;3016;50.308;8.258;2023-04-24T15:12:56;11.80;1.00
5980;DHT22;3016;50.308;8.258;2023-04-24T15:15:57;11.70;1.00
5980;DHT22;3016;50.308;8.258;2023-04-24T15:18:58;11.70;1.00
5980;DHT22;3016;50.308;8.258;2023-04-24T15:21:58;11.70;1.00
5980;DHT22;3016;50.308;8.258;2023-04-24T15:24:59;11.70;1.00
5980;DHT22;3016;50.308;8.258;2023-04-24T15:28:00;11.70;1.00
5980;DHT22;3016;50.308;8.258;2023-04-24T15:31:00;11.80;1.00
5980;DHT22;3016;50.308;8.258;2023-04-24T15:34:01;11.90;1.00
5980;DHT22;3016;50.308;8.258;2023-04-24T15:37:02;12.10;1.00
5980;DHT22;3016;50.308;8.258;2023-04-24T15:40:03;12.20;1.00
5980;DHT22;3016;50.308;8.258;2023-04-24T15:43:05;12.50;1.00
5980;DHT22;3016;50.308;8.258;2023-04-24T15:46:06;12.70;1.00
5980;DHT22;3016;50.308;8.258;2023-04-24T15:49:07;12.70;1.00
5980;DHT22;3016;50.308;8.258;2023-04-24T15:52:07;12.50;1.00
5980;DHT22;3016;50.308;8.258;2023-04-24T15:55:10;12.40;1.00
5980;DHT22;3016;50.308;8.258;2023-04-24T15:58:11;12.10;1.00
5980;DHT22;3016;50.308;8.258;2023-04-24T16:01:11;12.00;1.00
5980;DHT22;3016;50.308;8.258;2023-04-24T16:04:12;11.90;1.00
5980;DHT22;3016;50.308;8.258;2023-04-24T16:07:16;11.80;1.00
5980;DHT22;3016;50.308;8.258;2023-04-24T16:10:17;11.70;1.00
5980;DHT22;3016;50.308;8.258;2023-04-24T16:13:18;11.50;1.00
5980;DHT22;3016;50.308;8.258;2023-04-24T16:16:18;11.40;1.00
5980;DHT22;3016;50.308;8.258;2023-04-24T16:19:19;11.30;1.00
5980;DHT22;3016;50.308;8.258;2023-04-24T16:22:20;11.20;1.00
5980;DHT22;3016;50.308;8.258;2023-04-24T16:25:21;11.10;1.00
5980;DHT22;3016;50.308;8.258;2023-04-24T16:28:22;10.60;1.00
5980;DHT22;3016;50.308;8.258;2023-04-24T16:31:22;10.40;1.00
5980;DHT22;3016;50.308;8.258;2023-04-24T16:34:23;10.60;1.00
5980;DHT22;3016;50.308;8.258;2023-04-24T16:37:24;11.10;1.00
5980;DHT22;3016;50.308;8.258;2023-04-24T16:40:25;11.90;1.00
5980;DHT22;3016;50.308;8.258;2023-04-24T16:43:26;12.50;1.00
5980;DHT22;3016;50.308;8.258;2023-04-24T16:46:26;13.00;1.00
5980;DHT22;3016;50.308;8.258;2023-04-24T16:49:27;13.50;1.00
5980;DHT22;3016;50.308;8.258;2023-04-24T16:52:30;13.60;1.00
5980;DHT22;3016;50.308;8.258;2023-04-24T16:55:30;13.60;1.00
5980;DHT22;3016;50.308;8.258;2023-04-24T16:58:31;13.60;1.00
5980;DHT22;3016;50.308;8.258;2023-04-24T17:01:32;13.80;1.00
5980;DHT22;3016;50.308;8.258;2023-04-24T17:04:34;14.30;1.00
5980;DHT22;3016;50.308;8.258;2023-04-24T17:07:37;14.70;1.00
5980;DHT22;3016;50.308;8.258;2023-04-24T17:10:38;14.70;1.00
5980;DHT22;3016;50.308;8.258;2023-04-24T17:13:40;14.70;1.00
5980;DHT22;3016;50.308;8.258;2023-04-24T17:16:41;14.80;1.00
5980;DHT22;3016;50.308;8.258;2023-04-24T17:19:42;14.50;1.00
5980;DHT22;3016;50.308;8.258;2023-04-24T17:22:42;14.60;1.00
5980;DHT22;3016;50.308;8.258;2023-04-24T17:25:43;14.30;1.00
5980;DHT22;3016;50.308;8.258;2023-04-24T17:28:44;13.60;1.00
5980;DHT22;3016;50.308;8.258;2023-04-24T17:31:47;12.90;1.00
5980;DHT22;3016;50.308;8.258;2023-04-24T17:34:51;12.50;1.00
5980;DHT22;3016;50.308;8.258;2023-04-24T17:37:51;12.20;1.00
5980;DHT22;3016;50.308;8.258;2023-04-24T17:40:52;12.00;1.00
5980;DHT22;3016;50.308;8.258;2023-04-24T17:43:53;11.80;1.00
5980;DHT22;3016;50.308;8.258;2023-04-24T17:46:53;11.60;1.00
5980;DHT22;3016;50.308;8.258;2023-04-24T17:49:57;11.50;1.00
5980;DHT22;3016;50.308;8.258;2023-04-24T17:52:57;11.30;1.00
5980;DHT22;3016;50.308;8.258;2023-04-24T17:55:59;11.30;1.00
5980;DHT22;3016;50.308;8.258;2023-04-24T17:59:02;11.10;1.00
5980;DHT22;3016;50.308;8.258;2023-04-24T18:02:03;11.00;1.00
5980;DHT22;3016;50.308;8.258;2023-04-24T18:05:04;10.80;1.00
5980;DHT22;3016;50.308;8.258;2023-04-24T18:08:05;10.70;1.00
5980;DHT22;3016;50.308;8.258;2023-04-24T18:11:05;10.60;1.00
5980;DHT22;3016;50.308;8.258;2023-04-24T18:14:06;10.50;1.00
5980;DHT22;3016;50.308;8.258;2023-04-24T18:17:07;10.30;1.00
5980;DHT22;3016;50.308;8.258;2023-04-24T18:20:08;10.30;1.00
5980;DHT22;3016;50.308;8.258;2023-04-24T18:23:10;10.30;1.00
5980;DHT22;3016;50.308;8.258;2023-04-24T18:26:11;10.20;1.00
5980;DHT22;3016;50.308;8.258;2023-04-24T18:29:16;10.10;1.00
5980;DHT22;3016;50.308;8.258;2023-04-24T18:32:17;10.00;1.00
5980;DHT22;3016;50.308;8.258;2023-04-24T18:35:18;9.90;1.00
5980;DHT22;3016;50.308;8.258;2023-04-24T18:38:19;9.70;1.00
5980;DHT22;3016;50.308;8.258;2023-04-24T18:41:21;9.60;1.00
5980;DHT22;3016;50.308;8.258;2023-04-24T18:44:22;9.40;1.00
5980;DHT22;3016;50.308;8.258;2023-04-24T18:47:23;9.20;1.00
5980;DHT22;3016;50.308;8.258;2023-04-24T18:50:23;9.10;1.00
5980;DHT22;3016;50.308;8.258;2023-04-24T18:53:26;8.90;1.00
5980;DHT22;3016;50.308;8.258;2023-04-24T18:56:27;8.90;1.00
5980;DHT22;3016;50.308;8.258;2023-04-24T18:59:28;8.80;1.00
5980;DHT22;3016;50.308;8.258;2023-04-24T19:02:28;8.80;4.80
5980;DHT22;3016;50.308;8.258;2023-04-24T19:05:29;8.70;4.50
5980;DHT22;3016;50.308;8.258;2023-04-24T19:08:30;8.70;5.20
5980;DHT22;3016;50.308;8.258;2023-04-24T19:11:31;8.70;8.80
5980;DHT22;3016;50.308;8.258;2023-04-24T19:14:32;8.60;8.50
5980;DHT22;3016;50.308;8.258;2023-04-24T19:17:33;8.60;7.10
5980;DHT22;3016;50.308;8.258;2023-04-24T19:20:33;8.50;6.20
5980;DHT22;3016;50.308;8.258;2023-04-24T19:23:34;8.50;10.00
5980;DHT22;3016;50.308;8.258;2023-04-24T19:26:38;8.60;11.10
5980;DHT22;3016;50.308;8.258;2023-04-24T19:29:39;8.60;13.10
5980;DHT22;3016;50.308;8.258;2023-04-24T19:32:41;8.60;16.90
5980;DHT22;3016;50.308;8.258;2023-04-24T19:35:42;8.60;19.30
5980;DHT22;3016;50.308;8.258;2023-04-24T19:38:43;8.60;20.30
5980;DHT22;3016;50.308;8.258;2023-04-24T19:41:44;8.60;20.40
5980;DHT22;3016;50.308;8.258;2023-04-24T19:44:45;8.50;21.30
5980;DHT22;3016;50.308;8.258;2023-04-24T19:47:45;8.50;23.40
5980;DHT22;3016;50.308;8.258;2023-04-24T19:50:46;8.50;27.10
5980;DHT22;3016;50.308;8.258;2023-04-24T19:53:47;8.60;30.10
5980;DHT22;3016;50.308;8.258;2023-04-24T19:56:48;8.60;31.50
5980;DHT22;3016;50.308;8.258;2023-04-24T19:59:49;8.50;29.00
5980;DHT22;3016;50.308;8.258;2023-04-24T20:02:50;8.40;28.00
5980;DHT22;3016;50.308;8.258;2023-04-24T20:05:50;8.30;28.50
5980;DHT22;3016;50.308;8.258;2023-04-24T20:08:51;8.20;29.60
5980;DHT22;3016;50.308;8.258;2023-04-24T20:11:52;8.20;31.70